Time;durP1;ratioP1;P1;durP2;ratioP2;P2;SDS_P1;SDS_P2;PMS_P1;PMS_P2;Temp;Humidity;BMP_temperature;BMP_pressure;BME280_temperature;BME280_humidity;BME280_pressure;Samples;Min_cycle;Max_cycle;Signal;HPM_P1;HPM_P2
2022/07/16 00:02:14;;;;;;;4.10;2.00;;;;;;;14.11;53.18;100532.42;106046;1273;24683;-70
2022/07/16 00:04:41;;;;;;;3.70;2.40;;;;;;;14.06;53.27;100536.59;105748;1279;22726;-72
2022/07/16 00:07:08;;;;;;;5.90;2.70;;;;;;;14.03;53.41;100535.23;105744;1279;22550;-71
2022/07/16 00:09:35;;;;;;;6.10;2.40;;;;;;;14.02;53.62;100537.75;105525;1279;22617;-71
2022/07/16 00:12:03;;;;;;;6.40;2.60;;;;;;;13.97;53.61;100536.27;105473;1279;24422;-73
2022/07/16 00:14:30;;;;;;;5.90;2.00;;;;;;;13.94;53.80;100538.27;105748;1279;25356;-71
2022/07/16 00:16:57;;;;;;;4.60;1.90;;;;;;;13.94;53.81;100539.68;105548;1279;22577;-72
2022/07/16 00:19:24;;;;;;;4.60;2.00;;;;;;;13.89;53.79;100538.38;104978;1285;22719;-73
2022/07/16 00:21:54;;;;;;;7.30;2.50;;;;;;;13.89;53.72;100540.14;105056;1285;24236;-80
2022/07/16 00:24:22;;;;;;;6.00;2.60;;;;;;;13.87;53.82;100539.48;105397;1279;22553;-73
2022/07/16 00:26:50;;;;;;;6.20;1.80;;;;;;;13.89;53.86;100534.31;105695;1279;25289;-78
2022/07/16 00:29:21;;;;;;;3.90;2.40;;;;;;;13.85;53.89;100538.08;105566;1278;22762;-73
2022/07/16 00:31:49;;;;;;;7.90;2.60;;;;;;;13.83;53.97;100531.94;105568;1279;24320;-74
2022/07/16 00:34:18;;;;;;;4.10;2.30;;;;;;;13.82;54.06;100535.14;105700;1279;22543;-76
2022/07/16 00:36:45;;;;;;;3.50;2.10;;;;;;;13.81;54.10;100530.38;105813;1274;22658;-72
2022/07/16 00:39:12;;;;;;;4.30;2.30;;;;;;;13.77;54.15;100527.27;106059;1273;22600;-72
2022/07/16 00:41:41;;;;;;;5.50;2.20;;;;;;;13.74;54.20;100528.40;106005;1273;24205;-74
2022/07/16 00:44:11;;;;;;;3.60;1.90;;;;;;;13.75;54.41;100533.70;105960;1273;25235;-77
2022/07/16 00:46:40;;;;;;;5.20;2.70;;;;;;;13.72;54.26;100534.64;105994;1273;22531;-74
2022/07/16 00:49:08;;;;;;;6.40;2.70;;;;;;;13.67;54.25;100526.77;105592;1281;25381;-73
2022/07/16 00:51:37;;;;;;;5.30;2.20;;;;;;;13.70;54.37;100527.25;105575;1281;25545;-73
2022/07/16 00:54:04;;;;;;;3.90;2.50;;;;;;;13.70;54.52;100529.54;105698;1281;26565;-72
2022/07/16 00:56:31;;;;;;;5.90;2.40;;;;;;;13.70;54.55;100529.02;105632;1281;22659;-75
2022/07/16 00:58:59;;;;;;;3.70;2.30;;;;;;;13.69;54.50;100528.14;105250;1281;24524;-73
2022/07/16 01:01:25;;;;;;;8.50;2.90;;;;;;;13.67;54.65;100529.79;105230;1281;22654;-76
2022/07/16 01:03:53;;;;;;;6.40;2.40;;;;;;;13.64;54.75;100525.59;105400;1281;22566;-80
2022/07/16 01:06:22;;;;;;;3.70;1.80;;;;;;;13.66;54.87;100525.56;104917;1285;24095;-69
2022/07/16 01:08:50;;;;;;;4.90;1.90;;;;;;;13.62;54.98;100521.20;105202;1281;22577;-74
2022/07/16 01:11:19;;;;;;;3.90;2.20;;;;;;;13.58;55.00;100518.61;105576;1281;22938;-72
2022/07/16 01:13:49;;;;;;;11.50;2.30;;;;;;;13.56;55.07;100517.79;105460;1281;23594;-73
2022/07/16 01:16:18;;;;;;;7.70;2.70;;;;;;;13.54;55.33;100518.53;105290;1281;26483;-74
2022/07/16 01:18:46;;;;;;;7.00;2.00;;;;;;;13.52;55.38;100517.34;105485;1282;23010;-72
2022/07/16 01:21:14;;;;;;;4.00;2.50;;;;;;;13.51;55.35;100508.14;105602;1281;23209;-72
2022/07/16 01:23:42;;;;;;;6.70;2.40;;;;;;;13.52;55.49;100509.02;105591;1274;25471;-73
2022/07/16 01:26:09;;;;;;;5.50;1.80;;;;;;;13.49;55.39;100509.41;106168;1273;22540;-72
2022/07/16 01:28:36;;;;;;;4.30;2.30;;;;;;;13.44;55.65;100507.00;106077;1273;25359;-74
2022/07/16 01:31:03;;;;;;;9.10;2.60;;;;;;;13.44;55.75;100504.71;106091;1273;22525;-72
2022/07/16 01:33:33;;;;;;;5.50;2.00;;;;;;;13.46;55.75;100503.45;106103;1273;22699;-72
2022/07/16 01:36:12;;;;;;;4.30;2.10;;;;;;;13.45;55.76;100506.28;106123;1273;25488;-73
2022/07/16 01:38:41;;;;;;;3.60;2.00;;;;;;;13.45;55.78;100506.80;106063;1273;22533;-73
2022/07/16 01:41:09;;;;;;;4.00;1.80;;;;;;;13.40;55.80;100502.30;106107;1273;22544;-72
2022/07/16 01:43:37;;;;;;;6.10;2.80;;;;;;;13.37;55.82;100505.00;106013;1273;23720;-72
2022/07/16 01:46:05;;;;;;;4.80;2.40;;;;;;;13.34;56.15;100502.59;105969;1274;22751;-72
2022/07/16 01:48:32;;;;;;;5.00;2.30;;;;;;;13.31;56.10;100498.95;105952;1273;22525;-76
2022/07/16 01:51:00;;;;;;;6.00;2.50;;;;;;;13.29;56.26;100495.62;105996;1273;24095;-72
2022/07/16 01:53:29;;;;;;;5.10;2.30;;;;;;;13.32;56.38;100490.79;105409;1282;22702;-71
2022/07/16 01:55:58;;;;;;;5.30;2.30;;;;;;;13.38;56.37;100498.97;105315;1281;24221;-81
2022/07/16 01:58:26;;;;;;;8.20;2.50;;;;;;;13.42;56.30;100503.51;105396;1282;24659;-71
2022/07/16 02:00:53;;;;;;;8.60;2.20;;;;;;;13.41;56.20;100499.63;105601;1281;24255;-74
2022/07/16 02:03:21;;;;;;;3.80;2.00;;;;;;;13.36;56.28;100496.36;105704;1281;22538;-74
2022/07/16 02:05:48;;;;;;;5.50;2.00;;;;;;;13.34;56.34;100494.63;105403;1281;24373;-75
2022/07/16 02:08:16;;;;;;;6.10;2.20;;;;;;;13.36;56.45;100492.65;105407;1282;22645;-72
2022/07/16 02:10:43;;;;;;;8.70;2.20;;;;;;;13.36;56.55;100489.83;105513;1281;22565;-72
2022/07/16 02:13:10;;;;;;;6.20;2.50;;;;;;;13.35;56.53;100485.23;105931;1273;22527;-73
2022/07/16 02:15:37;;;;;;;6.00;2.00;;;;;;;13.35;56.44;100484.00;105873;1274;25306;-72
2022/07/16 02:18:04;;;;;;;7.20;2.70;;;;;;;13.34;56.55;100483.66;105568;1279;25358;-72
2022/07/16 02:20:32;;;;;;;3.80;2.00;;;;;;;13.37;56.64;100484.50;105587;1279;22760;-73
2022/07/16 02:22:59;;;;;;;3.20;2.10;;;;;;;13.35;56.74;100488.41;105518;1279;24411;-81
2022/07/16 02:25:26;;;;;;;3.90;2.40;;;;;;;13.35;56.73;100495.31;105811;1278;22538;-73
2022/07/16 02:28:08;;;;;;;7.60;2.80;;;;;;;13.35;56.89;100491.06;105787;1277;22626;-73
2022/07/16 02:30:44;;;;;;;6.10;2.00;;;;;;;13.40;56.80;100487.98;105577;1278;23107;-74
2022/07/16 02:33:14;;;;;;;4.60;2.20;;;;;;;13.36;56.77;100484.34;105632;1279;22657;-72
2022/07/16 02:35:42;;;;;;;7.90;2.20;;;;;;;13.34;56.98;100481.73;105646;1273;22711;-73
2022/07/16 02:38:09;;;;;;;5.20;2.10;;;;;;;13.39;56.97;100478.80;105901;1273;22878;-72
2022/07/16 02:40:38;;;;;;;4.50;2.20;;;;;;;13.44;56.92;100484.54;105858;1274;22547;-79
2022/07/16 02:43:07;;;;;;;4.90;2.10;;;;;;;13.44;56.87;100484.90;106192;1273;22721;-75
2022/07/16 02:45:37;;;;;;;5.40;2.00;;;;;;;13.43;56.73;100481.90;107346;1273;22555;-73
2022/07/16 02:48:04;;;;;;;5.60;2.20;;;;;;;13.42;56.74;100479.80;108272;1273;22996;-79
2022/07/16 02:50:31;;;;;;;5.00;2.40;;;;;;;13.40;56.82;100482.50;107021;1273;22688;-71
2022/07/16 02:52:58;;;;;;;6.70;2.30;;;;;;;13.40;56.80;100480.20;107782;1273;24244;-72
2022/07/16 02:55:26;;;;;;;4.60;2.30;;;;;;;13.36;56.89;100478.49;107937;1273;25246;-73
2022/07/16 02:57:53;;;;;;;6.60;2.10;;;;;;;13.35;57.02;100477.45;105871;1277;23936;-74
2022/07/16 03:00:20;;;;;;;4.10;2.00;;;;;;;13.33;57.00;100477.15;106051;1273;22532;-74
2022/07/16 03:02:47;;;;;;;7.00;2.00;;;;;;;13.32;57.15;100476.30;106029;1273;22564;-70
2022/07/16 03:05:14;;;;;;;3.20;2.00;;;;;;;13.31;57.00;100472.24;105923;1273;23852;-72
2022/07/16 03:07:42;;;;;;;6.60;2.40;;;;;;;13.29;57.09;100469.27;105446;1279;22547;-70
2022/07/16 03:10:11;;;;;;;9.20;2.30;;;;;;;13.30;57.17;100474.38;105603;1279;25307;-73
2022/07/16 03:12:39;;;;;;;5.00;1.90;;;;;;;13.27;57.13;100471.79;105635;1279;24254;-72
2022/07/16 03:15:09;;;;;;;6.70;2.00;;;;;;;13.25;57.21;100471.81;105744;1279;24356;-72
2022/07/16 03:17:36;;;;;;;4.50;2.00;;;;;;;13.26;57.27;100469.50;105473;1282;22549;-72
2022/07/16 03:20:04;;;;;;;5.10;1.60;;;;;;;13.26;57.32;100470.38;105111;1282;24575;-78
2022/07/16 03:22:31;;;;;;;6.80;2.10;;;;;;;13.26;57.31;100471.27;104975;1283;22541;-75
2022/07/16 03:24:58;;;;;;;3.70;1.90;;;;;;;13.27;57.33;100471.62;105172;1283;22742;-77
2022/07/16 03:27:25;;;;;;;6.30;2.10;;;;;;;13.24;57.34;100468.66;105571;1279;22544;-73
2022/07/16 03:29:52;;;;;;;9.90;3.00;;;;;;;13.22;57.43;100469.04;105517;1279;22741;-79
2022/07/16 03:32:19;;;;;;;6.00;2.30;;;;;;;13.22;57.50;100470.10;105582;1279;25376;-75
2022/07/16 03:34:46;;;;;;;4.50;2.40;;;;;;;13.21;57.43;100463.39;105545;1279;22545;-75
2022/07/16 03:37:13;;;;;;;5.10;2.60;;;;;;;13.26;57.48;100467.19;105724;1279;24251;-74
2022/07/16 03:39:39;;;;;;;4.90;2.00;;;;;;;13.28;57.35;100474.40;105884;1275;22694;-74
2022/07/16 03:42:06;;;;;;;5.60;2.00;;;;;;;13.28;57.34;100470.17;105915;1276;22574;-83
2022/07/16 03:44:34;;;;;;;5.30;2.10;;;;;;;13.24;57.38;100468.48;105958;1276;22658;-75
2022/07/16 03:47:01;;;;;;;3.50;1.60;;;;;;;13.23;57.48;100470.60;106094;1273;25249;-73
2022/07/16 03:49:28;;;;;;;6.50;2.00;;;;;;;13.27;57.36;100469.48;106128;1273;22537;-69
2022/07/16 03:51:54;;;;;;;4.60;1.80;;;;;;;13.29;57.49;100468.55;106060;1274;22481;-71
2022/07/16 03:54:22;;;;;;;9.40;2.40;;;;;;;13.32;57.48;100467.95;106105;1276;22537;-73
2022/07/16 03:56:48;;;;;;;9.80;2.20;;;;;;;13.36;57.47;100463.98;105851;1276;22643;-76
2022/07/16 03:59:16;;;;;;;5.10;2.10;;;;;;;13.42;57.45;100462.11;106119;1274;25261;-71
2022/07/16 04:01:42;;;;;;;7.10;2.00;;;;;;;13.48;57.38;100460.77;105971;1273;25261;-73
2022/07/16 04:04:09;;;;;;;3.10;1.70;;;;;;;13.48;57.19;100457.05;105999;1276;23052;-75
2022/07/16 04:06:36;;;;;;;4.90;1.90;;;;;;;13.46;57.12;100459.58;105959;1273;22550;-77
2022/07/16 04:09:03;;;;;;;6.00;2.00;;;;;;;13.39;57.22;100455.27;106063;1273;25347;-75
2022/07/16 04:11:30;;;;;;;4.00;1.90;;;;;;;13.41;57.24;100465.14;105858;1273;22570;-79
2022/07/16 04:13:57;;;;;;;3.70;2.00;;;;;;;13.41;57.21;100463.55;106141;1273;22617;-77
2022/07/16 04:16:24;;;;;;;4.20;2.20;;;;;;;13.41;57.36;100469.73;106163;1273;25280;-76
2022/07/16 04:18:51;;;;;;;3.50;2.10;;;;;;;13.44;57.35;100470.92;106048;1273;25252;-76
2022/07/16 04:21:18;;;;;;;3.80;2.00;;;;;;;13.50;57.30;100461.27;105883;1279;25403;-75
2022/07/16 04:23:45;;;;;;;4.90;1.70;;;;;;;13.49;57.09;100460.41;105913;1279;24236;-74
2022/07/16 04:26:12;;;;;;;4.90;2.00;;;;;;;13.54;57.25;100470.92;105726;1279;22739;-75
2022/07/16 04:28:39;;;;;;;4.00;1.90;;;;;;;13.57;57.38;100462.38;105840;1279;25256;-73
2022/07/16 04:31:06;;;;;;;4.00;1.70;;;;;;;13.58;57.41;100465.02;105793;1279;22545;-77
2022/07/16 04:33:32;;;;;;;4.30;1.80;;;;;;;13.59;57.44;100468.90;105855;1279;25255;-73
2022/07/16 04:36:02;;;;;;;4.50;1.90;;;;;;;13.60;57.54;100466.91;105704;1279;25316;-74
2022/07/16 04:38:30;;;;;;;3.60;1.80;;;;;;;13.64;57.57;100470.56;106029;1279;25401;-75
2022/07/16 04:40:57;;;;;;;5.20;1.90;;;;;;;13.63;57.54;100473.75;106087;1276;25252;-75
2022/07/16 04:43:23;;;;;;;3.50;2.00;;;;;;;13.65;57.59;100473.55;106347;1274;23434;-71
2022/07/16 04:45:50;;;;;;;3.20;1.90;;;;;;;13.64;57.65;100473.56;106270;1276;22537;-76
2022/07/16 04:48:17;;;;;;;4.60;1.80;;;;;;;13.70;57.61;100476.10;106512;1273;22718;-76
2022/07/16 04:50:44;;;;;;;2.00;1.80;;;;;;;13.71;57.56;100473.42;105981;1273;24230;-75
2022/07/16 04:53:11;;;;;;;4.40;1.90;;;;;;;13.71;57.60;100476.77;106174;1273;23984;-83
2022/07/16 04:55:38;;;;;;;3.60;1.90;;;;;;;13.72;57.69;100480.67;106250;1273;22566;-74
2022/07/16 04:58:05;;;;;;;5.60;2.30;;;;;;;13.65;57.78;100476.56;106041;1273;22741;-73
2022/07/16 05:00:32;;;;;;;4.10;2.10;;;;;;;13.67;57.88;100470.69;106143;1273;22544;-74
2022/07/16 05:02:59;;;;;;;3.70;1.80;;;;;;;13.69;57.85;100468.88;106312;1273;23072;-76
2022/07/16 05:05:33;;;;;;;7.80;2.20;;;;;;;13.72;57.91;100465.27;106172;1273;26513;-73
2022/07/16 05:08:03;;;;;;;3.80;2.00;;;;;;;13.78;57.79;100468.69;106091;1273;22551;-74
2022/07/16 05:10:30;;;;;;;3.80;1.80;;;;;;;13.81;57.76;100468.60;106526;1273;22528;-80
2022/07/16 05:12:58;;;;;;;4.20;1.80;;;;;;;13.88;57.65;100466.34;106958;1274;25920;-78
2022/07/16 05:15:26;;;;;;;5.10;1.90;;;;;;;13.97;57.73;100465.96;107399;1274;25258;-78
2022/07/16 05:17:54;;;;;;;3.40;2.10;;;;;;;14.09;57.67;100467.30;107458;1274;22829;-77
2022/07/16 05:20:21;;;;;;;7.10;2.00;;;;;;;14.21;57.67;100465.61;107891;1273;23843;-77
2022/07/16 05:22:48;;;;;;;4.60;1.70;;;;;;;14.30;57.39;100458.33;107729;1273;22705;-78
2022/07/16 05:25:15;;;;;;;5.70;1.90;;;;;;;14.33;56.94;100462.51;107891;1273;22545;-85
2022/07/16 05:27:44;;;;;;;4.70;1.60;;;;;;;14.33;56.89;100467.27;107824;1274;23945;-78
2022/07/16 05:30:12;;;;;;;3.70;1.70;;;;;;;14.32;56.75;100457.75;107580;1279;25334;-77
2022/07/16 05:32:41;;;;;;;5.80;1.80;;;;;;;14.38;56.70;100453.52;107238;1279;22840;-77
2022/07/16 05:35:10;;;;;;;4.60;1.80;;;;;;;14.38;56.64;100453.89;106877;1279;25254;-77
2022/07/16 05:37:37;;;;;;;4.80;2.00;;;;;;;14.42;56.76;100450.94;106618;1279;23035;-78
2022/07/16 05:40:06;;;;;;;5.40;2.00;;;;;;;14.42;56.66;100450.79;106468;1279;22753;-76
2022/07/16 05:42:33;;;;;;;3.90;1.80;;;;;;;14.36;56.80;100443.49;106306;1279;26483;-79
2022/07/16 05:45:00;;;;;;;5.00;1.90;;;;;;;14.38;56.86;100445.58;106194;1279;24200;-72
2022/07/16 05:47:27;;;;;;;4.10;1.90;;;;;;;14.43;57.06;100446.67;106620;1274;25241;-77
2022/07/16 05:49:54;;;;;;;4.70;2.10;;;;;;;14.44;56.93;100448.61;107305;1274;22551;-73
2022/07/16 05:52:21;;;;;;;4.50;2.00;;;;;;;14.45;56.91;100443.08;108122;1273;22652;-75
2022/07/16 05:54:47;;;;;;;8.80;2.00;;;;;;;14.51;56.91;100440.83;107909;1276;25317;-74
2022/07/16 05:57:14;;;;;;;6.60;2.30;;;;;;;14.57;56.81;100441.73;108046;1273;22864;-75
2022/07/16 05:59:41;;;;;;;9.30;2.40;;;;;;;14.60;56.64;100442.36;108373;1273;23171;-73
2022/07/16 06:02:08;;;;;;;8.70;2.40;;;;;;;14.63;56.69;100436.80;108535;1273;22579;-73
2022/07/16 06:04:35;;;;;;;2.90;1.70;;;;;;;14.74;56.71;100432.98;108676;1273;22535;-72
2022/07/16 06:07:02;;;;;;;10.20;2.40;;;;;;;14.84;56.64;100434.86;108482;1273;22864;-76
2022/07/16 06:09:29;;;;;;;4.80;2.00;;;;;;;14.93;56.24;100433.05;108612;1273;22542;-75
2022/07/16 06:11:57;;;;;;;6.30;2.10;;;;;;;14.94;56.30;100428.05;109049;1272;22684;-75
2022/07/16 06:14:24;;;;;;;5.00;2.00;;;;;;;14.96;56.13;100426.77;107420;1273;25357;-74
2022/07/16 06:16:51;;;;;;;3.00;1.60;;;;;;;14.99;56.33;100428.29;106367;1274;22544;-80
2022/07/16 06:19:18;;;;;;;5.50;1.60;;;;;;;15.02;56.16;100432.11;106221;1274;25240;-73
2022/07/16 06:21:45;;;;;;;7.00;1.80;;;;;;;14.99;56.25;100430.92;106032;1279;22881;-76
2022/07/16 06:24:11;;;;;;;6.00;2.50;;;;;;;15.01;56.28;100424.50;106064;1279;25893;-79
2022/07/16 06:26:46;;;;;;;5.50;2.00;;;;;;;15.05;56.25;100421.89;106127;1279;22551;-73
2022/07/16 06:29:15;;;;;;;5.10;2.00;;;;;;;15.07;56.16;100421.67;105833;1280;23853;-74
2022/07/16 06:31:43;;;;;;;3.90;1.60;;;;;;;15.06;56.15;100421.00;105946;1279;22643;-75
2022/07/16 06:34:11;;;;;;;6.50;2.20;;;;;;;15.14;56.33;100423.81;105606;1279;25236;-75
2022/07/16 06:36:38;;;;;;;5.80;2.20;;;;;;;15.21;56.41;100426.08;105612;1279;25252;-75
2022/07/16 06:39:06;;;;;;;7.50;2.00;;;;;;;15.27;56.34;100426.47;105791;1277;22614;-78
2022/07/16 06:41:35;;;;;;;7.50;2.10;;;;;;;15.29;55.91;100422.66;105834;1274;420137;-75
2022/07/16 06:44:04;;;;;;;5.00;2.20;;;;;;;15.29;55.91;100424.09;106268;1273;25248;-76
2022/07/16 06:46:31;;;;;;;5.10;1.90;;;;;;;15.30;55.60;100419.45;106201;1274;25308;-78
2022/07/16 06:48:58;;;;;;;4.20;1.60;;;;;;;15.27;55.50;100414.38;106182;1274;22609;-77
2022/07/16 06:51:26;;;;;;;6.20;2.70;;;;;;;15.31;55.45;100427.23;106063;1274;22541;-77
2022/07/16 06:53:53;;;;;;;5.60;1.80;;;;;;;15.35;55.47;100424.45;106017;1273;25240;-76
2022/07/16 06:56:20;;;;;;;7.10;1.60;;;;;;;15.38;55.57;100419.77;106088;1274;25255;-78
2022/07/16 06:58:47;;;;;;;4.60;1.90;;;;;;;15.44;55.47;100419.06;106061;1274;25514;-75
2022/07/16 07:01:14;;;;;;;4.30;1.70;;;;;;;15.49;55.45;100420.52;106051;1274;25991;-75
2022/07/16 07:03:41;;;;;;;5.40;1.70;;;;;;;15.57;55.34;100418.67;106086;1276;22521;-72
2022/07/16 07:06:09;;;;;;;2.40;1.80;;;;;;;15.63;55.08;100414.27;106047;1274;26477;-76
2022/07/16 07:08:36;;;;;;;7.30;1.60;;;;;;;15.71;54.87;100413.65;106174;1274;25483;-79
2022/07/16 07:11:04;;;;;;;2.50;1.60;;;;;;;15.76;54.70;100407.66;106166;1273;25325;-75
2022/07/16 07:13:31;;;;;;;4.90;1.80;;;;;;;15.86;54.26;100411.80;106085;1273;23962;-80
2022/07/16 07:15:59;;;;;;;3.00;1.50;;;;;;;15.91;53.90;100408.62;106071;1273;24195;-77
2022/07/16 07:18:26;;;;;;;3.30;1.80;;;;;;;15.97;53.71;100408.61;106590;1274;23233;-81
2022/07/16 07:20:56;;;;;;;4.20;1.70;;;;;;;16.03;53.69;100407.56;106199;1274;23961;-78
2022/07/16 07:23:24;;;;;;;6.70;1.70;;;;;;;16.10;53.56;100402.04;106020;1274;22537;-79
2022/07/16 07:25:51;;;;;;;5.00;1.50;;;;;;;16.19;53.36;100398.18;106197;1274;24295;-76
2022/07/16 07:28:17;;;;;;;7.20;1.90;;;;;;;16.31;53.14;100400.11;106049;1274;25822;-79
2022/07/16 07:30:44;;;;;;;5.00;1.50;;;;;;;16.49;53.03;100400.04;106193;1273;25367;-80
2022/07/16 07:33:11;;;;;;;6.90;1.60;;;;;;;16.75;52.61;100394.75;105973;1274;22837;-75
2022/07/16 07:35:39;;;;;;;3.40;1.70;;;;;;;16.92;52.17;100398.23;106220;1274;26663;-85
2022/07/16 07:38:07;;;;;;;2.50;1.30;;;;;;;16.96;51.86;100396.84;106253;1274;25246;-75
2022/07/16 07:40:34;;;;;;;3.20;1.60;;;;;;;17.07;51.74;100403.39;106302;1273;23923;-77
2022/07/16 07:43:01;;;;;;;2.50;1.20;;;;;;;17.15;51.39;100401.19;106176;1274;25292;-80
2022/07/16 07:45:27;;;;;;;5.00;1.60;;;;;;;17.14;51.30;100404.05;106038;1273;22529;-81
2022/07/16 07:47:55;;;;;;;7.80;1.40;;;;;;;17.18;51.13;100396.82;105754;1279;22588;-86
2022/07/16 07:50:22;;;;;;;2.50;1.20;;;;;;;17.25;51.25;100398.50;106018;1279;22874;-82
2022/07/16 07:52:49;;;;;;;4.60;1.50;;;;;;;17.39;51.10;100402.63;106561;1279;25381;-80
2022/07/16 07:55:17;;;;;;;4.30;1.30;;;;;;;17.48;50.69;100398.90;106549;1279;22684;-82
2022/07/16 07:57:51;;;;;;;5.10;1.20;;;;;;;17.51;50.58;100396.67;105753;1284;22918;-72
2022/07/16 08:00:19;;;;;;;3.60;1.20;;;;;;;17.68;51.46;100392.11;105178;1285;24278;-79
2022/07/16 08:02:46;;;;;;;4.20;1.40;;;;;;;17.85;50.96;100387.35;105461;1285;22540;-77
2022/07/16 08:05:14;;;;;;;4.20;1.10;;;;;;;18.04;51.03;100389.64;105301;1283;22836;-83
2022/07/16 08:07:42;;;;;;;5.10;1.80;;;;;;;18.22;50.08;100384.64;105928;1279;22781;-76
2022/07/16 08:10:10;;;;;;;2.90;1.40;;;;;;;18.49;50.26;100383.56;105817;1279;22536;-72
2022/07/16 08:12:38;;;;;;;2.90;1.20;;;;;;;18.69;48.32;100377.18;105686;1279;25400;-83
2022/07/16 08:15:07;;;;;;;5.40;1.40;;;;;;;18.73;47.61;100372.01;105793;1279;24381;-85
2022/07/16 08:17:39;;;;;;;2.50;1.10;;;;;;;18.72;47.26;100376.34;106162;1275;24219;-76
2022/07/16 08:20:08;;;;;;;5.00;1.40;;;;;;;18.69;46.35;100375.73;106202;1274;25565;-81
2022/07/16 08:22:36;;;;;;;3.90;1.10;;;;;;;18.66;45.84;100373.70;106078;1274;22563;-83
2022/07/16 08:27:50;;;;;;;1.90;1.00;;;;;;;18.57;46.10;100369.80;105842;1277;22571;-76
2022/07/16 08:30:18;;;;;;;7.40;1.20;;;;;;;18.54;46.44;100365.66;105833;1277;22594;-77
2022/07/16 08:32:45;;;;;;;5.40;1.40;;;;;;;18.61;46.61;100361.64;106094;1274;25295;-77
2022/07/16 08:35:12;;;;;;;3.90;1.00;;;;;;;18.83;46.91;100358.55;106011;1274;22525;-77
2022/07/16 08:37:42;;;;;;;1.70;1.20;;;;;;;19.11;46.69;100360.91;106059;1274;26810;-77
2022/07/16 08:40:13;;;;;;;3.40;1.10;;;;;;;19.22;45.23;100353.45;106105;1274;22528;-78
2022/07/16 08:42:40;;;;;;;2.10;0.80;;;;;;;19.25;44.54;100352.23;106006;1273;24300;-79
2022/07/16 08:45:10;;;;;;;3.20;0.90;;;;;;;19.26;43.44;100355.23;106054;1274;22560;-76
2022/07/16 08:47:37;;;;;;;4.20;1.20;;;;;;;19.32;43.20;100349.95;106279;1274;26547;-77
2022/07/16 08:50:15;;;;;;;6.10;1.50;;;;;;;19.36;43.63;100350.84;106102;1274;22569;-77
2022/07/16 08:52:45;;;;;;;1.90;1.30;;;;;;;19.47;43.66;100350.90;106220;1274;25368;-77
2022/07/16 08:55:12;;;;;;;3.50;1.10;;;;;;;19.54;43.11;100342.85;106167;1274;23867;-76
2022/07/16 08:57:40;;;;;;;3.50;1.50;;;;;;;19.60;42.91;100348.31;106158;1274;25431;-80
2022/07/16 09:00:11;;;;;;;3.40;1.30;;;;;;;19.57;42.57;100343.64;105846;1279;25125;-76
2022/07/16 09:02:39;;;;;;;3.10;1.00;;;;;;;19.55;43.22;100346.41;106075;1279;24454;-76
2022/07/16 09:05:07;;;;;;;2.20;1.20;;;;;;;19.62;43.14;100338.57;109036;1278;22576;-73
2022/07/16 09:07:34;;;;;;;4.80;1.70;;;;;;;19.65;43.31;100338.77;107873;1278;22532;-83
2022/07/16 09:10:04;;;;;;;2.90;1.10;;;;;;;19.74;43.59;100332.84;107002;1278;22588;-77
2022/07/16 09:12:37;;;;;;;1.70;1.20;;;;;;;19.86;42.91;100336.91;109314;1278;22541;-75
2022/07/16 09:15:31;;;;;;;2.60;1.00;;;;;;;19.90;42.73;100330.98;108521;1278;22572;-75
2022/07/16 09:18:03;;;;;;;4.60;2.20;;;;;;;20.02;41.80;100333.80;105846;1273;22538;-76
2022/07/16 09:20:34;;;;;;;5.20;1.50;;;;;;;20.03;41.26;100335.73;106061;1274;25356;-77
2022/07/16 09:23:02;;;;;;;3.60;1.60;;;;;;;20.07;41.35;100327.88;106084;1273;24359;-78
2022/07/16 09:25:29;;;;;;;2.60;1.30;;;;;;;20.07;41.36;100327.50;105930;1278;25528;-77
2022/07/16 09:27:57;;;;;;;3.50;1.20;;;;;;;20.23;41.84;100333.15;106140;1273;25208;-77
2022/07/16 09:30:25;;;;;;;3.10;1.40;;;;;;;20.39;41.40;100329.86;105464;1279;22914;-76
2022/07/16 09:32:54;;;;;;;1.70;0.90;;;;;;;20.41;41.97;100335.61;105367;1279;24270;-76
2022/07/16 09:35:21;;;;;;;1.50;1.10;;;;;;;20.52;41.45;100339.18;105453;1279;22560;-79
2022/07/16 09:38:00;;;;;;;3.50;1.30;;;;;;;20.39;41.63;100339.12;105479;1281;24327;-77
2022/07/16 09:40:37;;;;;;;1.70;1.20;;;;;;;20.35;41.80;100331.45;105562;1279;23388;-73
2022/07/16 09:43:18;;;;;;;2.00;1.20;;;;;;;20.50;41.40;100328.36;105508;1279;22546;-74
2022/07/16 09:45:57;;;;;;;3.60;1.00;;;;;;;20.54;41.78;100322.09;105483;1279;25510;-72
2022/07/16 09:48:36;;;;;;;1.70;1.00;;;;;;;20.63;41.54;100322.35;105612;1274;24381;-73
2022/07/16 09:51:20;;;;;;;5.70;1.50;;;;;;;20.51;41.54;100320.45;106078;1274;22703;-72
2022/07/16 09:53:51;;;;;;;2.80;1.00;;;;;;;20.58;41.83;100321.20;106047;1274;22563;-71
2022/07/16 09:56:23;;;;;;;2.60;1.20;;;;;;;20.79;41.46;100318.85;106124;1274;22622;-76
2022/07/16 09:58:54;;;;;;;1.80;0.90;;;;;;;20.92;40.94;100323.19;106350;1273;25257;-77
2022/07/16 10:01:22;;;;;;;5.10;1.40;;;;;;;20.97;40.86;100321.34;106098;1274;22547;-79
2022/07/16 10:03:51;;;;;;;2.90;1.30;;;;;;;21.11;40.14;100316.45;106069;1273;24246;-77
2022/07/16 10:06:18;;;;;;;4.30;1.10;;;;;;;21.17;39.61;100316.64;106102;1275;24422;-78
2022/07/16 10:08:46;;;;;;;1.70;0.60;;;;;;;20.91;38.55;100306.58;106118;1276;24237;-75
2022/07/16 10:11:13;;;;;;;3.80;1.10;;;;;;;20.72;38.80;100307.40;105994;1274;22581;-74
2022/07/16 10:13:44;;;;;;;6.00;3.60;;;;;;;20.96;38.95;100307.57;105717;1281;23955;-82
2022/07/16 10:16:11;;;;;;;5.90;1.50;;;;;;;21.03;38.76;100308.63;105724;1281;22577;-74
2022/07/16 10:18:43;;;;;;;2.20;0.90;;;;;;;20.93;39.13;100306.67;105554;1281;24391;-76
2022/07/16 10:21:19;;;;;;;4.00;1.40;;;;;;;20.85;39.19;100300.98;105297;1282;24412;-81
2022/07/16 10:23:49;;;;;;;2.20;1.10;;;;;;;20.61;39.25;100304.91;105213;1281;23055;-74
2022/07/16 10:26:21;;;;;;;2.50;1.20;;;;;;;20.47;39.42;100300.64;105616;1281;22603;-75
2022/07/16 10:28:54;;;;;;;1.90;1.10;;;;;;;20.35;39.55;100298.19;105581;1281;25367;-76
2022/07/16 10:32:26;;;;;;;2.80;1.10;;;;;;;20.26;39.93;100298.81;105361;1277;24240;-76
2022/07/16 10:34:37;;;;;;;1.40;0.80;;;;;;;20.19;40.08;100291.33;106080;1274;22819;-75
2022/07/16 10:37:07;;;;;;;4.00;1.10;;;;;;;20.19;40.19;100286.86;106103;1274;22527;-73
2022/07/16 10:39:34;;;;;;;5.20;1.40;;;;;;;20.25;40.13;100282.99;106060;1274;23924;-76
2022/07/16 10:42:04;;;;;;;4.20;1.40;;;;;;;20.31;40.05;100284.83;106039;1274;22538;-75
2022/07/16 10:44:44;;;;;;;3.90;1.10;;;;;;;20.40;40.13;100286.88;106475;1273;26531;-76
2022/07/16 10:47:13;;;;;;;1.80;1.10;;;;;;;20.49;39.87;100288.40;106086;1274;23036;-75
2022/07/16 10:49:40;;;;;;;3.20;1.20;;;;;;;20.52;39.91;100274.96;105975;1276;22759;-73
2022/07/16 10:52:09;;;;;;;6.80;1.40;;;;;;;20.66;40.09;100276.59;105793;1274;22615;-78
2022/07/16 10:54:40;;;;;;;4.30;1.20;;;;;;;20.75;39.84;100274.66;106064;1276;22817;-73
2022/07/16 10:57:12;;;;;;;2.40;1.20;;;;;;;20.76;39.60;100274.26;106195;1273;22578;-77
2022/07/16 10:59:43;;;;;;;3.30;1.40;;;;;;;20.63;39.54;100268.65;106201;1273;22558;-77
2022/07/16 11:02:11;;;;;;;1.50;1.10;;;;;;;20.53;40.08;100273.33;106087;1276;22735;-73
2022/07/16 11:04:41;;;;;;;5.80;1.60;;;;;;;20.43;40.01;100272.91;105949;1276;22869;-75
2022/07/16 11:07:20;;;;;;;3.80;1.30;;;;;;;20.24;40.04;100273.91;106116;1274;22607;-76
2022/07/16 11:09:54;;;;;;;3.00;1.60;;;;;;;20.03;40.15;100270.85;106143;1276;22669;-73
2022/07/16 11:12:24;;;;;;;3.80;1.40;;;;;;;19.87;40.49;100260.03;106212;1274;22597;-71
2022/07/16 11:14:53;;;;;;;2.60;1.10;;;;;;;19.86;40.89;100260.61;106235;1274;25270;-74
2022/07/16 11:17:24;;;;;;;4.90;1.40;;;;;;;19.91;41.07;100257.33;106289;1274;22614;-74
2022/07/16 11:19:57;;;;;;;3.90;1.50;;;;;;;19.97;41.18;100261.64;106233;1275;25224;-72
2022/07/16 11:22:27;;;;;;;3.30;1.50;;;;;;;19.92;40.80;100267.42;106063;1274;25819;-77
2022/07/16 11:25:00;;;;;;;4.40;1.20;;;;;;;19.79;40.90;100266.48;106200;1274;22556;-75
2022/07/16 11:27:33;;;;;;;2.00;1.20;;;;;;;19.67;41.15;100268.67;106304;1273;24278;-74